createdAt,value
2023-05-22T00:01:38.500Z,2.40
2023-05-22T00:04:05.143Z,2.70
2023-05-22T00:06:33.542Z,2.40
2023-05-22T00:09:00.285Z,2.80
2023-05-22T00:11:26.928Z,3.30
2023-05-22T00:13:53.566Z,2.60
2023-05-22T00:16:20.461Z,2.50
2023-05-22T00:18:47.766Z,2.90
2023-05-22T00:21:16.361Z,2.40
2023-05-22T00:23:43.058Z,2.60
2023-05-22T00:26:09.812Z,2.70
2023-05-22T00:28:36.376Z,2.60
2023-05-22T00:31:03.492Z,2.50
2023-05-22T00:33:30.277Z,2.60
2023-05-22T00:35:56.980Z,3.30
2023-05-22T00:38:32.289Z,2.90
2023-05-22T00:41:00.434Z,3.00
2023-05-22T00:43:27.901Z,3.00
2023-05-22T00:45:55.747Z,2.80
2023-05-22T00:48:23.566Z,2.70
2023-05-22T00:50:51.319Z,3.00
2023-05-22T00:53:20.651Z,2.90
2023-05-22T00:55:47.546Z,3.00
2023-05-22T00:58:17.612Z,3.10
2023-05-22T01:00:45.957Z,2.50
2023-05-22T01:03:13.942Z,2.80
2023-05-22T01:05:42.648Z,2.50
2023-05-22T01:08:09.719Z,2.80
2023-05-22T01:10:39.252Z,3.20
2023-05-22T01:13:24.789Z,2.90
2023-05-22T01:16:18.174Z,2.80
2023-05-22T01:19:06.930Z,3.00
2023-05-22T01:22:20.917Z,2.70
2023-05-22T01:24:59.770Z,2.90
2023-05-22T01:27:38.386Z,3.30
2023-05-22T01:30:21.299Z,2.80
2023-05-22T01:32:48.914Z,2.90
2023-05-22T01:35:18.322Z,2.70
2023-05-22T01:37:45.443Z,2.90
2023-05-22T01:40:13.120Z,2.50
2023-05-22T01:42:40.704Z,2.50
2023-05-22T01:45:11.205Z,2.80
2023-05-22T01:47:38.376Z,3.00
2023-05-22T01:50:06.074Z,3.10
2023-05-22T01:52:47.145Z,3.30
2023-05-22T01:55:26.801Z,3.10
2023-05-22T01:58:09.060Z,2.80
2023-05-22T02:00:40.965Z,3.30
2023-05-22T02:03:18.509Z,2.90
2023-05-22T02:05:51.237Z,2.50
2023-05-22T02:08:20.669Z,3.80
2023-05-22T02:10:49.124Z,2.50
2023-05-22T02:13:16.066Z,3.10
2023-05-22T02:15:45.888Z,3.80
2023-05-22T02:18:12.842Z,3.00
2023-05-22T02:20:41.087Z,2.90
2023-05-22T02:23:08.022Z,2.70
2023-05-22T02:25:34.666Z,3.40
2023-05-22T02:28:01.329Z,3.60
2023-05-22T02:30:27.978Z,3.00
2023-05-22T02:32:56.824Z,3.30
2023-05-22T02:35:23.517Z,2.80
2023-05-22T02:37:51.422Z,2.90
2023-05-22T02:40:18.301Z,3.00
2023-05-22T02:42:45.010Z,3.10
2023-05-22T02:45:12.055Z,3.30
2023-05-22T02:47:38.683Z,2.50
2023-05-22T02:50:06.562Z,3.00
2023-05-22T02:52:34.500Z,3.00
2023-05-22T02:55:01.209Z,3.20
2023-05-22T02:57:27.900Z,2.90
2023-05-22T02:59:54.559Z,3.30
2023-05-22T03:02:21.120Z,3.20
2023-05-22T03:04:48.067Z,3.20
2023-05-22T03:07:14.659Z,3.50
2023-05-22T03:09:41.185Z,3.00
2023-05-22T03:12:08.444Z,2.60
2023-05-22T03:14:35.217Z,2.30
2023-05-22T03:17:02.358Z,3.00
2023-05-22T03:19:29.621Z,3.10
2023-05-22T03:21:56.967Z,2.80
2023-05-22T03:24:24.193Z,3.00
2023-05-22T03:26:50.928Z,3.50
2023-05-22T03:29:23.199Z,2.80
2023-05-22T03:31:49.794Z,2.80
2023-05-22T03:34:16.450Z,3.50
2023-05-22T03:36:44.789Z,3.30
2023-05-22T03:39:11.784Z,3.00
2023-05-22T03:41:43.800Z,3.20
2023-05-22T03:44:11.360Z,3.60
2023-05-22T03:46:37.950Z,3.50
2023-05-22T03:49:05.432Z,3.30
2023-05-22T03:51:32.123Z,3.50
2023-05-22T03:54:00.290Z,3.50
2023-05-22T03:56:26.984Z,3.40
2023-05-22T03:58:53.695Z,3.20
2023-05-22T04:01:21.718Z,3.10
2023-05-22T04:03:48.284Z,4.90
2023-05-22T04:06:14.982Z,2.90
2023-05-22T04:08:41.524Z,2.80
2023-05-22T04:11:08.167Z,2.60
2023-05-22T04:13:34.929Z,3.40
2023-05-22T04:16:03.084Z,3.20
2023-05-22T04:18:29.698Z,3.10
2023-05-22T04:20:56.946Z,2.80
2023-05-22T04:23:23.684Z,2.90
2023-05-22T04:25:50.991Z,3.30
2023-05-22T04:28:22.896Z,3.30
2023-05-22T04:30:49.487Z,3.10
2023-05-22T04:33:18.038Z,2.90
2023-05-22T04:35:44.900Z,3.60
2023-05-22T04:38:11.702Z,2.60
2023-05-22T04:40:38.525Z,2.70
2023-05-22T04:43:05.653Z,3.70
2023-05-22T04:45:32.348Z,2.80
2023-05-22T04:48:01.765Z,3.00
2023-05-22T04:50:33.035Z,3.20
2023-05-22T04:52:59.852Z,2.70
2023-05-22T04:55:26.705Z,3.30
2023-05-22T04:57:53.354Z,2.80
2023-05-22T05:00:25.695Z,2.70
2023-05-22T05:02:52.872Z,3.10
2023-05-22T05:05:19.673Z,2.90
2023-05-22T05:07:49.954Z,3.10
2023-05-22T05:10:17.602Z,3.00
2023-05-22T05:12:44.568Z,3.50
2023-05-22T05:15:11.252Z,2.60
2023-05-22T05:17:37.940Z,3.00
2023-05-22T05:20:06.651Z,2.60
2023-05-22T05:22:34.172Z,2.80
2023-05-22T05:25:03.617Z,3.10
2023-05-22T05:27:30.429Z,3.00
2023-05-22T05:29:57.171Z,3.00
2023-05-22T05:32:37.943Z,2.70
2023-05-22T05:35:27.472Z,3.20
2023-05-22T05:38:08.007Z,3.10
2023-05-22T05:40:35.635Z,2.80
2023-05-22T05:43:03.251Z,2.90
2023-05-22T05:45:30.123Z,2.70
2023-05-22T05:47:57.045Z,2.70
2023-05-22T05:50:26.845Z,2.80
2023-05-22T05:52:54.641Z,2.50
2023-05-22T05:55:21.575Z,3.20
2023-05-22T05:57:48.821Z,3.00
2023-05-22T06:00:22.673Z,2.50
2023-05-22T06:02:50.715Z,2.30
2023-05-22T06:05:45.249Z,2.80
2023-05-22T06:08:25.961Z,2.90
2023-05-22T06:10:52.901Z,2.80
2023-05-22T06:13:38.666Z,2.70
2023-05-22T06:16:07.190Z,2.60
2023-05-22T06:18:34.407Z,2.90
2023-05-22T06:21:01.199Z,2.70
2023-05-22T06:32:23.999Z,3.00
2023-05-22T06:34:53.313Z,3.00
2023-05-22T06:37:21.504Z,2.90
2023-05-22T06:39:49.884Z,2.50
2023-05-22T06:42:32.982Z,2.90
2023-05-22T06:45:20.110Z,3.00
2023-05-22T06:48:01.400Z,2.60
2023-05-22T06:50:31.302Z,2.50
2023-05-22T06:52:59.486Z,2.40
2023-05-22T06:55:27.873Z,2.80
2023-05-22T06:58:05.220Z,3.50
2023-05-22T07:00:36.244Z,2.70
2023-05-22T07:03:24.496Z,2.10
2023-05-22T07:06:13.777Z,2.50
2023-05-22T07:08:42.114Z,2.40
2023-05-22T07:11:10.690Z,2.80
2023-05-22T07:13:38.738Z,2.60
2023-05-22T07:16:07.974Z,2.40
2023-05-22T07:18:36.260Z,2.40
2023-05-22T07:21:04.372Z,2.30
2023-05-22T07:23:32.330Z,2.80
2023-05-22T07:26:00.974Z,2.30
2023-05-22T07:28:33.081Z,2.50
2023-05-22T07:31:05.917Z,2.70
2023-05-22T07:33:34.052Z,2.50
2023-05-22T07:36:03.195Z,2.80
2023-05-22T07:38:31.579Z,3.40
2023-05-22T07:41:04.797Z,2.60
2023-05-22T07:43:34.226Z,2.60
2023-05-22T07:46:02.461Z,3.00
2023-05-22T07:48:36.208Z,3.00
2023-05-22T07:51:04.299Z,3.20
2023-05-22T07:53:32.675Z,2.50
2023-05-22T07:56:01.351Z,3.00
2023-05-22T07:58:30.691Z,2.50
2023-05-22T08:00:58.698Z,2.30
2023-05-22T08:03:26.785Z,2.70
2023-05-22T08:05:54.857Z,3.20
2023-05-22T08:08:22.865Z,2.90
2023-05-22T08:11:03.258Z,2.60
2023-05-22T08:13:32.463Z,3.80
2023-05-22T08:16:01.560Z,2.40
2023-05-22T08:18:30.254Z,3.70
2023-05-22T08:21:00.245Z,2.60
2023-05-22T08:23:28.383Z,2.80
2023-05-22T08:25:57.179Z,2.50
2023-05-22T08:28:25.276Z,3.00
2023-05-22T08:30:55.371Z,2.60
2023-05-22T08:33:23.476Z,2.80
2023-05-22T08:35:51.666Z,2.90
2023-05-22T08:38:21.356Z,2.90
2023-05-22T08:41:00.713Z,2.80
2023-05-22T08:43:29.313Z,2.50
2023-05-22T08:46:03.311Z,2.30
2023-05-22T08:48:32.509Z,2.40
2023-05-22T08:51:05.082Z,2.80
2023-05-22T08:53:37.108Z,2.90
2023-05-22T08:56:07.010Z,2.40
2023-05-22T08:58:36.685Z,2.70
2023-05-22T09:01:07.173Z,2.30
2023-05-22T09:03:36.884Z,2.40
2023-05-22T09:06:10.563Z,2.30
2023-05-22T09:08:39.184Z,2.60
2023-05-22T09:11:07.122Z,2.90
2023-05-22T09:13:35.138Z,2.40
2023-05-22T09:16:11.786Z,2.10
2023-05-22T09:18:41.167Z,1.80
2023-05-22T09:21:22.155Z,1.90
2023-05-22T09:24:02.491Z,1.80
2023-05-22T09:26:30.553Z,1.90
2023-05-22T09:29:03.160Z,2.00
2023-05-22T09:31:31.865Z,2.20
2023-05-22T09:34:00.020Z,2.60
2023-05-22T09:36:35.640Z,1.90
2023-05-22T09:41:40.085Z,2.10
2023-05-22T09:46:45.345Z,2.30
2023-05-22T09:49:16.116Z,2.00
2023-05-22T09:51:49.470Z,2.20
2023-05-22T09:54:19.880Z,2.00
2023-05-22T09:56:50.481Z,2.20
2023-05-22T09:59:23.438Z,2.40
2023-05-22T10:01:53.844Z,2.20
2023-05-22T10:04:23.172Z,2.00
2023-05-22T10:06:54.140Z,1.70
2023-05-22T10:09:26.186Z,2.30
2023-05-22T10:11:57.398Z,2.10
2023-05-22T10:14:26.457Z,2.30
2023-05-22T10:16:56.892Z,2.10
2023-05-22T10:19:27.339Z,2.00
2023-05-22T10:21:57.527Z,1.50
2023-05-22T10:24:25.695Z,2.30
2023-05-22T10:26:54.983Z,2.00
2023-05-22T10:29:29.707Z,1.80
2023-05-22T10:32:08.374Z,2.00
2023-05-22T10:35:17.074Z,2.00
2023-05-22T10:37:52.125Z,2.30
2023-05-22T10:40:33.327Z,2.50
2023-05-22T10:43:04.033Z,2.10
2023-05-22T10:45:33.090Z,2.20
2023-05-22T10:48:08.409Z,2.10
2023-05-22T10:50:38.195Z,2.30
2023-05-22T10:53:26.505Z,2.20
2023-05-22T10:55:56.979Z,2.90
2023-05-22T10:58:38.866Z,2.10
2023-05-22T11:01:13.329Z,2.50
2023-05-22T11:03:55.660Z,2.30
2023-05-22T11:07:02.994Z,2.20
2023-05-22T11:09:39.015Z,2.10
2023-05-22T11:12:27.577Z,2.50
2023-05-22T11:15:02.760Z,2.30
2023-05-22T11:17:32.302Z,2.40
2023-05-22T11:20:05.712Z,2.10
2023-05-22T11:22:35.431Z,2.30
2023-05-22T11:25:07.136Z,2.40
2023-05-22T11:27:36.592Z,2.50
2023-05-22T11:30:05.325Z,2.20
2023-05-22T11:32:39.406Z,2.20
2023-05-22T11:35:10.661Z,2.30
2023-05-22T11:37:40.107Z,2.10
2023-05-22T11:40:09.619Z,2.10
2023-05-22T11:42:37.876Z,2.50
2023-05-22T11:45:22.423Z,2.10
2023-05-22T11:47:56.727Z,2.10
2023-05-22T11:50:40.174Z,2.10
2023-05-22T11:53:09.888Z,2.10
2023-05-22T11:55:37.857Z,1.90
2023-05-22T11:58:05.886Z,1.90
2023-05-22T12:00:34.047Z,2.20
2023-05-22T12:03:02.188Z,1.90
2023-05-22T12:05:33.059Z,2.40
2023-05-22T12:08:01.189Z,2.40
2023-05-22T12:10:29.145Z,2.40
2023-05-22T12:12:57.088Z,2.30
2023-05-22T12:15:25.716Z,2.00
2023-05-22T12:17:56.794Z,2.30
2023-05-22T12:20:30.500Z,2.30
2023-05-22T12:22:59.021Z,1.90
2023-05-22T12:25:36.215Z,2.20
2023-05-22T12:28:06.626Z,2.10
2023-05-22T12:30:42.308Z,2.10
2023-05-22T12:33:14.981Z,2.10
2023-05-22T12:35:43.272Z,2.60
2023-05-22T12:38:11.347Z,2.20
2023-05-22T12:40:39.496Z,2.60
2023-05-22T12:43:07.584Z,2.40
2023-05-22T12:45:36.809Z,2.20
2023-05-22T12:48:05.425Z,2.20
2023-05-22T12:50:33.651Z,2.20
2023-05-22T12:53:02.517Z,2.40
2023-05-22T12:55:31.719Z,2.20
2023-05-22T12:58:02.069Z,2.20
2023-05-22T13:00:30.720Z,2.40
2023-05-22T13:02:58.924Z,2.20
2023-05-22T13:05:27.261Z,2.40
2023-05-22T13:07:55.368Z,2.50
2023-05-22T13:10:23.962Z,2.40
2023-05-22T13:13:01.768Z,2.20
2023-05-22T13:15:38.811Z,2.60
2023-05-22T13:18:06.977Z,2.50
2023-05-22T13:20:38.676Z,2.10
2023-05-22T13:23:07.460Z,2.00
2023-05-22T13:25:35.541Z,2.50
2023-05-22T13:28:03.876Z,3.00
2023-05-22T13:30:32.337Z,2.50
2023-05-22T13:33:00.479Z,2.30
2023-05-22T13:35:28.562Z,2.40
2023-05-22T13:37:56.556Z,2.70
2023-05-22T13:40:24.587Z,2.60
2023-05-22T13:42:52.928Z,2.60
2023-05-22T13:45:20.967Z,2.40
2023-05-22T13:47:49.905Z,2.30
2023-05-22T13:53:03.653Z,2.30
2023-05-22T13:55:31.640Z,2.50
2023-05-22T13:57:59.476Z,2.40
2023-05-22T14:00:27.455Z,2.80
2023-05-22T14:02:55.680Z,2.70
2023-05-22T14:05:24.385Z,2.60
2023-05-22T14:07:52.424Z,2.00
2023-05-22T14:10:20.661Z,2.50
2023-05-22T14:12:48.717Z,2.60
2023-05-22T14:15:17.882Z,2.20
2023-05-22T14:17:46.982Z,2.60
2023-05-22T14:20:15.243Z,2.60
2023-05-22T14:22:56.602Z,2.10
2023-05-22T14:26:24.719Z,2.60
2023-05-22T14:29:25.956Z,2.40
2023-05-22T14:32:07.402Z,2.50
2023-05-22T14:34:36.408Z,2.50
2023-05-22T14:37:05.184Z,2.70
2023-05-22T14:39:35.513Z,2.40
2023-05-22T14:42:03.537Z,2.30
2023-05-22T14:44:31.477Z,2.40
2023-05-22T14:46:59.547Z,2.90
2023-05-22T14:49:35.993Z,2.70
2023-05-22T14:52:04.209Z,1.90
2023-05-22T14:54:32.911Z,2.20
2023-05-22T14:57:00.896Z,2.30
2023-05-22T14:59:28.935Z,2.50
2023-05-22T15:01:57.123Z,2.80
2023-05-22T15:04:25.445Z,2.70
2023-05-22T15:06:53.473Z,2.50
2023-05-22T15:09:21.428Z,2.40
2023-05-22T15:11:51.099Z,2.90
2023-05-22T15:14:19.389Z,2.60
2023-05-22T15:16:47.564Z,2.60
2023-05-22T15:19:16.240Z,2.50
2023-05-22T15:21:44.552Z,2.90
2023-05-22T15:24:13.414Z,3.20
2023-05-22T15:26:41.493Z,3.00
2023-05-22T15:29:11.042Z,3.10
2023-05-22T15:31:39.601Z,3.30
2023-05-22T15:34:07.675Z,3.30
2023-05-22T15:36:36.821Z,3.10
2023-05-22T15:39:04.785Z,3.20
2023-05-22T15:41:32.922Z,2.70
2023-05-22T15:44:01.233Z,3.30
2023-05-22T15:46:29.457Z,2.70
2023-05-22T15:48:57.512Z,3.10
2023-05-22T15:51:25.640Z,3.00
2023-05-22T15:53:53.583Z,2.70
2023-05-22T15:56:21.585Z,2.70
2023-05-22T15:58:49.515Z,2.70
2023-05-22T16:01:18.504Z,2.80
2023-05-22T16:03:46.852Z,3.00
2023-05-22T16:06:14.950Z,2.80
2023-05-22T16:08:42.919Z,3.00
2023-05-22T16:11:10.961Z,2.40
2023-05-22T16:13:39.104Z,2.80
2023-05-22T16:16:07.723Z,2.70
2023-05-22T16:18:35.959Z,3.50
2023-05-22T16:21:04.124Z,2.60
2023-05-22T16:23:32.164Z,3.20
2023-05-22T16:26:00.159Z,2.80
2023-05-22T16:28:28.208Z,3.50
2023-05-22T16:30:56.288Z,2.70
2023-05-22T16:33:24.279Z,3.30
2023-05-22T16:35:52.284Z,2.70
2023-05-22T16:38:20.169Z,3.40
2023-05-22T16:40:48.101Z,2.90
2023-05-22T16:43:17.275Z,2.80
2023-05-22T16:45:47.633Z,2.90
2023-05-22T16:48:15.948Z,3.00
2023-05-22T16:50:44.220Z,3.40
2023-05-22T16:53:13.170Z,3.40
2023-05-22T16:55:41.431Z,3.30
2023-05-22T16:58:11.544Z,3.60
2023-05-22T17:00:40.599Z,3.10
2023-05-22T17:03:09.881Z,3.00
2023-05-22T17:05:39.046Z,3.40
2023-05-22T17:08:07.260Z,3.30
2023-05-22T17:10:35.435Z,3.60
2023-05-22T17:13:03.905Z,3.30
2023-05-22T17:15:34.797Z,3.10
2023-05-22T17:18:03.116Z,3.10
2023-05-22T17:20:34.178Z,3.70
2023-05-22T17:23:02.278Z,3.70
2023-05-22T17:25:42.753Z,3.80
2023-05-22T17:28:10.787Z,3.80
2023-05-22T17:30:39.904Z,3.40
2023-05-22T17:33:12.324Z,3.10
2023-05-22T17:35:40.427Z,3.70
2023-05-22T17:38:08.587Z,2.70
2023-05-22T17:40:44.660Z,3.40
2023-05-22T17:43:13.874Z,4.00
2023-05-22T17:45:44.435Z,3.40
2023-05-22T17:48:14.566Z,3.40
2023-05-22T17:50:42.827Z,3.80
2023-05-22T17:53:10.980Z,4.40
2023-05-22T17:55:39.109Z,3.30
2023-05-22T17:58:07.192Z,5.50
2023-05-22T18:00:35.068Z,3.50
2023-05-22T18:03:03.108Z,3.70
2023-05-22T18:05:31.589Z,3.90
2023-05-22T18:08:00.412Z,3.80
2023-05-22T18:10:28.379Z,3.70
2023-05-22T18:12:56.559Z,4.00
2023-05-22T18:15:24.562Z,4.40
2023-05-22T18:17:53.549Z,4.40
2023-05-22T18:20:21.551Z,4.20
2023-05-22T18:22:49.779Z,4.40
2023-05-22T18:25:20.159Z,4.90
2023-05-22T18:27:48.660Z,4.70
2023-05-22T18:30:17.540Z,4.40
2023-05-22T18:32:46.613Z,4.40
2023-05-22T18:35:14.550Z,4.60
2023-05-22T18:37:42.506Z,4.40
2023-05-22T18:40:12.642Z,4.40
2023-05-22T18:42:40.830Z,4.50
2023-05-22T18:45:11.282Z,4.80
2023-05-22T18:47:40.714Z,4.50
2023-05-22T18:50:09.477Z,4.20
2023-05-22T18:52:38.076Z,4.60
2023-05-22T18:55:07.077Z,4.70
2023-05-22T18:57:35.133Z,4.50
2023-05-22T19:00:03.490Z,4.90
2023-05-22T19:02:31.521Z,4.80
2023-05-22T19:04:59.797Z,4.10
2023-05-22T19:07:28.099Z,4.90
2023-05-22T19:09:57.344Z,4.70
2023-05-22T19:12:28.474Z,4.50
2023-05-22T19:14:56.529Z,4.70
2023-05-22T19:17:24.702Z,4.60
2023-05-22T19:19:52.696Z,4.00
2023-05-22T19:22:20.652Z,4.40
2023-05-22T19:24:48.560Z,4.30
2023-05-22T19:27:17.507Z,4.20
2023-05-22T19:29:45.582Z,4.00
2023-05-22T19:32:14.636Z,4.20
2023-05-22T19:34:42.632Z,5.00
2023-05-22T19:37:11.699Z,4.90
2023-05-22T19:39:39.694Z,3.90
2023-05-22T19:42:11.339Z,4.50
2023-05-22T19:44:39.401Z,4.20
2023-05-22T19:47:07.754Z,4.80
2023-05-22T19:49:37.317Z,4.70
2023-05-22T19:52:06.801Z,5.50
2023-05-22T19:54:36.402Z,4.50
2023-05-22T19:57:05.957Z,4.70
2023-05-22T19:59:36.409Z,4.20
2023-05-22T20:02:04.940Z,4.40
2023-05-22T20:04:33.050Z,4.60
2023-05-22T20:07:03.881Z,4.20
2023-05-22T20:09:32.690Z,5.10
2023-05-22T20:12:00.947Z,4.90
2023-05-22T20:14:29.120Z,4.50
2023-05-22T20:16:58.966Z,5.00
2023-05-22T20:19:27.542Z,4.80
2023-05-22T20:21:58.271Z,5.50
2023-05-22T20:24:27.209Z,5.40
2023-05-22T20:26:56.688Z,5.30
2023-05-22T20:29:34.821Z,5.00
2023-05-22T20:32:10.914Z,4.70
2023-05-22T20:34:40.158Z,5.20
2023-05-22T20:37:09.987Z,4.90
2023-05-22T20:39:38.359Z,4.20
2023-05-22T20:42:06.564Z,5.10
2023-05-22T20:44:35.213Z,5.50
2023-05-22T20:47:03.293Z,4.80
2023-05-22T20:49:34.706Z,5.20
2023-05-22T20:52:03.225Z,4.30
2023-05-22T20:54:34.222Z,5.70
2023-05-22T20:57:02.811Z,5.40
2023-05-22T20:59:31.031Z,4.50
2023-05-22T21:01:59.119Z,5.00
2023-05-22T21:04:27.376Z,4.90
2023-05-22T21:06:55.392Z,5.10
2023-05-22T21:09:23.297Z,4.70
2023-05-22T21:11:51.262Z,4.60
2023-05-22T21:14:19.240Z,4.60
2023-05-22T21:16:47.464Z,4.90
2023-05-22T21:19:15.679Z,4.80
2023-05-22T21:21:43.753Z,4.40
2023-05-22T21:24:11.784Z,4.10
2023-05-22T21:26:40.793Z,5.00
2023-05-22T21:29:08.708Z,5.50
2023-05-22T21:31:36.840Z,5.00
2023-05-22T21:34:04.809Z,5.00
2023-05-22T21:36:32.692Z,4.90
2023-05-22T21:39:00.980Z,4.60
2023-05-22T21:41:29.004Z,5.10
2023-05-22T21:43:58.043Z,5.80
2023-05-22T21:46:26.099Z,5.40
2023-05-22T21:48:54.036Z,4.90
2023-05-22T21:51:22.028Z,5.50
2023-05-22T21:53:50.880Z,5.10
2023-05-22T21:56:18.872Z,5.60
2023-05-22T21:58:48.465Z,4.70
2023-05-22T22:01:16.493Z,5.80
2023-05-22T22:03:44.799Z,4.60
2023-05-22T22:06:12.900Z,5.10
2023-05-22T22:08:40.977Z,5.50
2023-05-22T22:11:08.994Z,5.00
2023-05-22T22:13:37.013Z,5.60
2023-05-22T22:16:05.510Z,5.20
2023-05-22T22:18:33.804Z,5.50
2023-05-22T22:21:02.229Z,5.40
2023-05-22T22:23:30.464Z,5.30
2023-05-22T22:25:58.366Z,5.20
2023-05-22T22:28:27.269Z,4.90
2023-05-22T22:30:55.315Z,5.30
2023-05-22T22:33:23.541Z,5.20
2023-05-22T22:35:52.679Z,4.80
2023-05-22T22:38:20.737Z,5.10
2023-05-22T22:40:48.731Z,4.80
2023-05-22T22:43:16.612Z,5.40
2023-05-22T22:45:44.650Z,4.80
2023-05-22T22:48:12.596Z,4.70
2023-05-22T22:50:41.221Z,4.80
2023-05-22T22:53:09.297Z,4.80
2023-05-22T22:55:37.422Z,6.00
2023-05-22T22:58:05.574Z,4.90
2023-05-22T23:00:33.589Z,5.10
2023-05-22T23:03:01.600Z,5.50
2023-05-22T23:05:29.708Z,5.10
2023-05-22T23:08:01.966Z,5.10
2023-05-22T23:10:30.106Z,5.00
2023-05-22T23:12:58.434Z,5.50
2023-05-22T23:15:26.548Z,5.50
2023-05-22T23:17:54.478Z,5.00
2023-05-22T23:20:22.556Z,5.40
2023-05-22T23:22:51.320Z,5.30
2023-05-22T23:25:19.317Z,5.50
2023-05-22T23:27:47.380Z,5.40
2023-05-22T23:30:15.633Z,5.30
2023-05-22T23:32:43.597Z,5.50
2023-05-22T23:35:11.674Z,5.10
2023-05-22T23:37:39.762Z,5.70
2023-05-22T23:40:08.977Z,5.70
2023-05-22T23:42:37.473Z,5.80
2023-05-22T23:45:05.894Z,5.50
2023-05-22T23:47:33.909Z,5.30
2023-05-22T23:50:02.037Z,5.40
2023-05-22T23:52:30.080Z,5.50
2023-05-22T23:54:58.383Z,5.40
2023-05-22T23:57:26.261Z,5.80
2023-05-22T23:59:54.271Z,5.20
